createdAt,value
2022-10-02T00:02:06.672Z,99.70
2022-10-02T00:04:41.218Z,99.50
2022-10-02T00:07:12.819Z,99.00
2022-10-02T00:09:50.333Z,99.10
2022-10-02T00:12:24.424Z,99.10
2022-10-02T00:14:56.577Z,98.70
2022-10-02T00:17:29.408Z,98.20
2022-10-02T00:19:57.738Z,97.70
2022-10-02T00:22:35.282Z,97.30
2022-10-02T00:25:14.850Z,97.20
2022-10-02T00:27:58.795Z,96.80
2022-10-02T00:30:28.139Z,96.70
2022-10-02T00:33:06.647Z,96.60
2022-10-02T00:35:50.911Z,96.60
2022-10-02T00:38:31.524Z,96.70
2022-10-02T00:41:29.000Z,96.70
2022-10-02T00:44:15.946Z,96.40
2022-10-02T00:46:54.463Z,96.30
2022-10-02T00:49:48.372Z,96.20
2022-10-02T00:52:32.832Z,96.10
2022-10-02T00:55:26.699Z,96.10
2022-10-02T00:58:15.683Z,96.00
2022-10-02T01:00:53.719Z,96.10
2022-10-02T01:03:27.663Z,96.20
2022-10-02T01:05:55.664Z,96.30
2022-10-02T01:08:23.881Z,96.00
2022-10-02T01:10:52.071Z,96.00
2022-10-02T01:13:21.739Z,96.20
2022-10-02T01:15:54.694Z,96.50
2022-10-02T01:18:23.150Z,96.80
2022-10-02T01:20:53.563Z,96.80
2022-10-02T01:23:29.323Z,97.20
2022-10-02T01:25:59.339Z,98.00
2022-10-02T01:28:28.038Z,99.50
2022-10-02T01:31:02.527Z,99.90
2022-10-02T01:33:31.667Z,99.90
2022-10-02T01:36:02.552Z,99.90
2022-10-02T01:38:31.292Z,99.90
2022-10-02T01:41:00.682Z,99.90
2022-10-02T01:43:33.036Z,99.90
2022-10-02T01:46:16.743Z,99.90
2022-10-02T01:48:48.220Z,99.90
2022-10-02T01:51:55.199Z,99.90
2022-10-02T01:54:37.506Z,99.90
2022-10-02T01:57:16.799Z,99.90
2022-10-02T01:59:54.773Z,99.90
2022-10-02T02:02:29.718Z,99.90
2022-10-02T02:05:01.615Z,99.90
2022-10-02T02:07:35.799Z,99.90
2022-10-02T02:10:14.607Z,99.90
2022-10-02T02:12:49.468Z,99.90
2022-10-02T02:15:24.690Z,99.90
2022-10-02T02:17:58.649Z,99.90
2022-10-02T02:20:31.108Z,99.90
2022-10-02T02:23:05.207Z,99.90
2022-10-02T02:25:38.500Z,99.90
2022-10-02T02:28:12.435Z,99.90
2022-10-02T02:30:45.269Z,99.90
2022-10-02T02:33:18.300Z,99.90
2022-10-02T02:35:50.599Z,99.90
2022-10-02T02:38:24.887Z,99.90
2022-10-02T02:40:53.453Z,99.90
2022-10-02T02:43:27.443Z,99.90
2022-10-02T02:45:57.907Z,99.90
2022-10-02T02:48:28.905Z,99.90
2022-10-02T02:51:00.649Z,99.90
2022-10-02T02:53:33.276Z,99.90
2022-10-02T02:56:04.265Z,99.90
2022-10-02T02:58:38.606Z,99.90
2022-10-02T03:01:07.156Z,99.90
2022-10-02T03:03:35.357Z,99.90
2022-10-02T03:06:07.741Z,99.90
2022-10-02T03:08:37.527Z,99.90
2022-10-02T03:11:13.848Z,99.90
2022-10-02T03:13:56.151Z,99.90
2022-10-02T03:16:40.456Z,99.90
2022-10-02T03:19:24.731Z,99.90
2022-10-02T03:22:04.171Z,99.90
2022-10-02T03:24:36.548Z,99.90
2022-10-02T03:27:09.511Z,99.90
2022-10-02T03:29:46.039Z,99.90
2022-10-02T03:32:17.543Z,99.90
2022-10-02T03:34:45.862Z,99.90
2022-10-02T03:37:14.129Z,99.90
2022-10-02T03:39:44.436Z,99.90
2022-10-02T03:42:14.679Z,99.90
2022-10-02T03:44:44.810Z,99.90
2022-10-02T03:47:12.793Z,99.90
2022-10-02T03:49:40.842Z,99.90
2022-10-02T03:52:08.933Z,99.90
2022-10-02T03:54:37.755Z,99.90
2022-10-02T03:57:08.295Z,99.80
2022-10-02T03:59:48.366Z,99.50
2022-10-02T04:02:34.140Z,98.80
2022-10-02T04:05:10.249Z,98.60
2022-10-02T04:07:40.844Z,98.10
2022-10-02T04:10:30.676Z,98.10
2022-10-02T04:13:00.611Z,98.10
2022-10-02T04:15:35.636Z,98.00
2022-10-02T04:18:09.271Z,98.10
2022-10-02T04:20:44.650Z,98.10
2022-10-02T04:23:18.834Z,98.20
2022-10-02T04:25:51.991Z,98.10
2022-10-02T04:28:25.451Z,98.00
2022-10-02T04:30:55.150Z,98.00
2022-10-02T04:33:25.777Z,97.90
2022-10-02T04:36:06.067Z,97.80
2022-10-02T04:38:55.117Z,97.80
2022-10-02T04:41:40.470Z,97.70
2022-10-02T04:44:21.220Z,97.40
2022-10-02T04:47:08.712Z,97.30
2022-10-02T04:49:54.940Z,96.80
2022-10-02T04:52:50.267Z,96.50
2022-10-02T04:55:34.812Z,95.30
2022-10-02T04:58:23.775Z,94.80
2022-10-02T05:01:02.374Z,94.30
2022-10-02T05:03:48.471Z,94.10
2022-10-02T05:06:38.434Z,94.00
2022-10-02T05:09:18.046Z,94.00
2022-10-02T05:12:13.614Z,94.10
2022-10-02T05:15:04.830Z,94.00
2022-10-02T05:17:48.739Z,93.80
2022-10-02T05:20:39.218Z,93.60
2022-10-02T05:23:22.075Z,93.80
2022-10-02T05:26:14.672Z,93.70
2022-10-02T05:29:04.060Z,93.70
2022-10-02T05:31:43.203Z,93.40
2022-10-02T05:34:29.211Z,93.20
2022-10-02T05:37:14.180Z,93.20
2022-10-02T05:39:50.732Z,93.00
2022-10-02T05:42:27.509Z,93.20
2022-10-02T05:45:02.091Z,93.20
2022-10-02T05:47:32.847Z,93.10
2022-10-02T05:50:06.864Z,92.70
2022-10-02T05:52:41.215Z,92.60
2022-10-02T05:55:17.682Z,92.50
2022-10-02T05:57:49.722Z,92.50
2022-10-02T06:00:25.621Z,92.40
2022-10-02T06:03:01.349Z,92.40
2022-10-02T06:05:42.491Z,92.40
2022-10-02T06:08:15.233Z,92.40
2022-10-02T06:10:49.449Z,92.30
2022-10-02T06:13:26.995Z,92.30
2022-10-02T06:16:06.827Z,92.20
2022-10-02T06:18:38.602Z,92.10
2022-10-02T06:21:11.813Z,92.00
2022-10-02T06:23:45.722Z,92.00
2022-10-02T06:26:25.163Z,92.00
2022-10-02T06:29:00.463Z,92.00
2022-10-02T06:31:41.441Z,92.00
2022-10-02T06:34:13.166Z,92.10
2022-10-02T06:37:19.796Z,92.10
2022-10-02T06:40:06.195Z,91.90
2022-10-02T06:42:47.125Z,91.90
2022-10-02T06:45:23.356Z,91.70
2022-10-02T06:48:01.827Z,91.60
2022-10-02T06:50:43.139Z,91.80
2022-10-02T06:53:30.355Z,91.60
2022-10-02T06:56:09.717Z,91.50
2022-10-02T06:58:55.488Z,91.40
2022-10-02T07:01:35.372Z,91.60
2022-10-02T07:04:30.716Z,91.20
2022-10-02T07:07:12.138Z,91.10
2022-10-02T07:10:04.131Z,91.00
2022-10-02T07:13:12.288Z,91.20
2022-10-02T07:16:15.905Z,91.40
2022-10-02T07:19:12.575Z,90.80
2022-10-02T07:21:50.371Z,90.20
2022-10-02T07:24:40.390Z,90.10
2022-10-02T07:27:13.312Z,90.10
2022-10-02T07:29:51.405Z,90.10
2022-10-02T07:32:47.740Z,90.20
2022-10-02T07:35:38.200Z,90.00
2022-10-02T07:38:44.137Z,89.30
2022-10-02T07:41:42.540Z,89.30
2022-10-02T07:44:28.589Z,89.20
2022-10-02T07:47:09.911Z,89.00
2022-10-02T07:49:50.398Z,89.40
2022-10-02T07:52:26.928Z,88.80
2022-10-02T07:55:14.965Z,89.60
2022-10-02T07:57:52.236Z,89.20
2022-10-02T08:00:23.901Z,89.10
2022-10-02T08:02:57.715Z,90.00
2022-10-02T08:05:31.924Z,89.10
2022-10-02T08:08:04.530Z,89.00
2022-10-02T08:10:38.183Z,89.20
2022-10-02T08:13:14.288Z,89.10
2022-10-02T08:15:45.528Z,89.00
2022-10-02T08:18:34.112Z,89.10
2022-10-02T08:21:04.668Z,89.80
2022-10-02T08:23:40.578Z,89.50
2022-10-02T08:26:13.515Z,89.70
2022-10-02T08:28:45.626Z,89.90
2022-10-02T08:31:14.950Z,90.00
2022-10-02T08:33:44.583Z,89.70
2022-10-02T08:36:43.621Z,91.10
2022-10-02T08:39:27.117Z,90.20
2022-10-02T08:42:40.486Z,89.90
2022-10-02T08:45:47.729Z,90.30
2022-10-02T08:48:49.547Z,90.10
2022-10-02T08:51:51.647Z,90.00
2022-10-02T08:54:42.816Z,90.00
2022-10-02T08:57:41.569Z,90.10
2022-10-02T09:00:20.612Z,91.10
2022-10-02T09:03:20.547Z,90.70
2022-10-02T09:06:28.646Z,90.90
2022-10-02T09:09:43.220Z,91.30
2022-10-02T09:12:40.080Z,91.80
2022-10-02T09:15:16.881Z,92.30
2022-10-02T09:17:50.024Z,92.60
2022-10-02T09:20:43.010Z,93.40
2022-10-02T09:23:47.532Z,92.50
2022-10-02T09:26:26.877Z,92.20
2022-10-02T09:29:36.066Z,93.60
2022-10-02T09:32:44.152Z,94.10
2022-10-02T09:35:46.338Z,94.10
2022-10-02T09:38:44.773Z,93.50
2022-10-02T09:41:48.396Z,93.50
2022-10-02T09:45:01.583Z,94.00
2022-10-02T09:48:07.018Z,94.60
2022-10-02T09:51:20.149Z,94.00
2022-10-02T09:54:25.991Z,94.30
2022-10-02T09:57:35.770Z,94.20
2022-10-02T10:00:19.921Z,94.50
2022-10-02T10:03:22.631Z,94.90
2022-10-02T10:06:41.584Z,94.80
2022-10-02T10:09:44.057Z,94.40
2022-10-02T10:12:41.669Z,94.30
2022-10-02T10:15:35.713Z,94.80
2022-10-02T10:18:36.374Z,94.00
2022-10-02T10:21:41.330Z,94.00
2022-10-02T10:24:45.090Z,93.70
2022-10-02T10:27:40.410Z,93.30
2022-10-02T10:30:57.443Z,92.90
2022-10-02T10:33:49.126Z,92.50
2022-10-02T10:37:09.107Z,92.50
2022-10-02T10:40:07.737Z,91.70
2022-10-02T10:43:07.814Z,93.70
2022-10-02T10:45:56.120Z,95.60
2022-10-02T10:48:49.220Z,96.20
2022-10-02T10:51:33.656Z,95.80
2022-10-02T10:54:24.213Z,95.60
2022-10-02T10:56:57.694Z,95.90
2022-10-02T11:00:16.978Z,96.10
2022-10-02T11:03:23.328Z,97.20
2022-10-02T11:06:23.841Z,96.00
2022-10-02T11:09:36.609Z,97.00
2022-10-02T11:12:48.026Z,97.00
2022-10-02T11:15:38.413Z,97.00
2022-10-02T11:18:20.269Z,96.70
2022-10-02T11:21:10.472Z,96.50
2022-10-02T11:24:18.829Z,97.50
2022-10-02T11:27:13.124Z,96.70
2022-10-02T11:30:17.008Z,97.50
2022-10-02T11:32:59.172Z,96.50
2022-10-02T11:35:48.315Z,95.70
2022-10-02T11:38:35.490Z,96.10
2022-10-02T11:41:26.332Z,96.40
2022-10-02T11:44:16.784Z,96.10
2022-10-02T11:47:12.504Z,96.60
2022-10-02T11:50:04.347Z,98.30
2022-10-02T11:53:01.689Z,99.90
2022-10-02T11:55:47.089Z,99.90
2022-10-02T11:58:23.436Z,99.90
2022-10-02T12:01:11.926Z,99.90
2022-10-02T12:03:56.080Z,99.90
2022-10-02T12:06:37.647Z,99.90
2022-10-02T12:09:14.685Z,99.90
2022-10-02T12:11:48.213Z,99.90
2022-10-02T12:14:30.618Z,99.90
2022-10-02T12:17:09.248Z,99.90
2022-10-02T12:20:06.363Z,99.90
2022-10-02T12:22:57.553Z,99.90
2022-10-02T12:25:50.540Z,99.90
2022-10-02T12:28:29.005Z,99.90
2022-10-02T12:31:05.868Z,99.90
2022-10-02T12:33:44.036Z,99.90
2022-10-02T12:36:46.865Z,99.90
2022-10-02T12:39:32.966Z,99.90
2022-10-02T12:42:12.086Z,99.90
2022-10-02T12:45:00.631Z,99.90
2022-10-02T12:47:56.734Z,99.90
2022-10-02T12:50:44.429Z,99.40
2022-10-02T12:53:44.235Z,99.10
2022-10-02T12:56:54.901Z,99.20
2022-10-02T12:59:32.365Z,99.90
2022-10-02T13:03:00.908Z,99.90
2022-10-02T13:05:54.748Z,97.90
2022-10-02T13:08:48.342Z,98.30
2022-10-02T13:11:30.138Z,98.20
2022-10-02T13:14:17.999Z,98.20
2022-10-02T13:17:10.471Z,99.90
2022-10-02T13:19:59.396Z,99.90
2022-10-02T13:22:38.402Z,99.90
2022-10-02T13:25:42.721Z,99.90
2022-10-02T13:28:30.837Z,99.90
2022-10-02T13:31:09.920Z,99.90
2022-10-02T13:34:01.804Z,99.90
2022-10-02T13:36:44.310Z,99.90
2022-10-02T13:39:31.545Z,99.90
2022-10-02T13:42:20.383Z,99.90
2022-10-02T13:45:00.380Z,99.90
2022-10-02T13:47:40.364Z,99.90
2022-10-02T13:50:31.029Z,99.30
2022-10-02T13:53:40.153Z,98.80
2022-10-02T13:56:24.517Z,98.40
2022-10-02T13:59:09.426Z,96.40
2022-10-02T14:01:50.117Z,96.60
2022-10-02T14:04:38.472Z,96.90
2022-10-02T14:07:19.192Z,97.10
2022-10-02T14:09:56.768Z,96.50
2022-10-02T14:12:28.684Z,96.00
2022-10-02T14:15:32.400Z,99.40
2022-10-02T14:18:26.244Z,97.50
2022-10-02T14:21:03.412Z,98.30
2022-10-02T14:23:48.207Z,97.30
2022-10-02T14:26:29.717Z,96.50
2022-10-02T14:29:13.292Z,96.30
2022-10-02T14:32:11.515Z,97.20
2022-10-02T14:35:09.660Z,97.50
2022-10-02T14:38:14.961Z,96.10
2022-10-02T14:40:53.054Z,96.40
2022-10-02T14:43:56.897Z,96.30
2022-10-02T14:46:42.962Z,96.00
2022-10-02T14:49:45.269Z,95.70
2022-10-02T14:52:29.337Z,96.30
2022-10-02T14:55:35.853Z,95.30
2022-10-02T14:58:31.193Z,95.30
2022-10-02T15:01:26.479Z,94.20
2022-10-02T15:04:29.204Z,94.20
2022-10-02T15:07:06.877Z,94.70
2022-10-02T15:09:39.986Z,94.20
2022-10-02T15:12:18.222Z,94.30
2022-10-02T15:15:08.666Z,94.30
2022-10-02T15:17:55.926Z,95.00
2022-10-02T15:20:31.918Z,94.50
2022-10-02T15:23:03.325Z,94.70
2022-10-02T15:25:52.238Z,94.70
2022-10-02T15:28:36.921Z,95.40
2022-10-02T15:31:18.589Z,94.90
2022-10-02T15:33:56.785Z,95.00
2022-10-02T15:36:43.803Z,95.40
2022-10-02T15:39:44.281Z,95.50
2022-10-02T15:42:27.558Z,94.80
2022-10-02T15:45:20.456Z,95.30
2022-10-02T15:48:15.168Z,96.00
2022-10-02T15:50:53.062Z,95.90
2022-10-02T15:53:46.220Z,96.80
2022-10-02T15:56:31.712Z,96.10
2022-10-02T15:59:16.745Z,95.70
2022-10-02T16:01:57.584Z,95.50
2022-10-02T16:04:33.421Z,95.50
2022-10-02T16:07:42.750Z,94.60
2022-10-02T16:10:25.642Z,95.00
2022-10-02T16:13:07.392Z,94.90
2022-10-02T16:15:51.074Z,94.50
2022-10-02T16:18:41.846Z,95.40
2022-10-02T16:21:54.293Z,95.80
2022-10-02T16:24:48.932Z,95.10
2022-10-02T16:27:46.672Z,95.50
2022-10-02T16:30:16.398Z,96.30
2022-10-02T16:33:07.526Z,96.50
2022-10-02T16:35:56.132Z,96.40
2022-10-02T16:38:37.942Z,97.40
2022-10-02T16:41:37.059Z,98.00
2022-10-02T16:44:32.464Z,98.70
2022-10-02T16:47:07.990Z,99.80
2022-10-02T16:49:50.935Z,99.90
2022-10-02T16:52:24.519Z,99.90
2022-10-02T16:55:00.252Z,99.90
2022-10-02T16:57:50.155Z,99.90
2022-10-02T17:00:25.501Z,99.90
2022-10-02T17:03:01.431Z,99.90
2022-10-02T17:05:36.480Z,99.90
2022-10-02T17:08:10.302Z,99.90
2022-10-02T17:10:47.419Z,99.90
2022-10-02T17:13:29.819Z,99.90
2022-10-02T17:16:04.260Z,99.90
2022-10-02T17:18:41.484Z,99.90
2022-10-02T17:21:16.851Z,99.90
2022-10-02T17:23:58.758Z,99.90
2022-10-02T17:26:35.831Z,99.90
2022-10-02T17:29:14.231Z,99.90
2022-10-02T17:31:51.622Z,99.90
2022-10-02T17:34:24.927Z,99.90
2022-10-02T17:37:04.756Z,99.90
2022-10-02T17:39:44.013Z,99.90
2022-10-02T17:42:23.753Z,99.90
2022-10-02T17:45:04.723Z,99.90
2022-10-02T17:47:47.655Z,99.90
2022-10-02T17:50:30.828Z,99.90
2022-10-02T17:53:32.237Z,99.90
2022-10-02T17:56:30.977Z,99.90
2022-10-02T17:59:13.813Z,99.90
2022-10-02T18:01:50.086Z,99.90
2022-10-02T18:04:25.316Z,99.90
2022-10-02T18:07:03.014Z,99.90
2022-10-02T18:09:47.877Z,99.90
2022-10-02T18:12:31.637Z,99.90
2022-10-02T18:15:35.615Z,99.90
2022-10-02T18:18:24.284Z,99.90
2022-10-02T18:21:01.394Z,99.90
2022-10-02T18:23:52.418Z,99.90
2022-10-02T18:26:35.253Z,99.90
2022-10-02T18:29:41.220Z,99.90
2022-10-02T18:32:27.341Z,99.90
2022-10-02T18:35:14.405Z,99.90
2022-10-02T18:37:57.113Z,99.90
2022-10-02T18:40:28.813Z,99.90
2022-10-02T18:43:26.848Z,99.90
2022-10-02T18:46:07.710Z,99.90
2022-10-02T18:48:59.792Z,99.90
2022-10-02T18:51:55.767Z,99.90
2022-10-02T18:54:30.595Z,99.90
2022-10-02T18:57:14.067Z,99.90
2022-10-02T18:59:56.060Z,99.90
2022-10-02T19:02:38.730Z,99.90
2022-10-02T19:05:25.711Z,99.90
2022-10-02T19:08:10.034Z,99.90
2022-10-02T19:10:44.969Z,99.90
2022-10-02T19:13:18.280Z,99.90
2022-10-02T19:15:49.571Z,99.90
2022-10-02T19:18:24.025Z,99.90
2022-10-02T19:20:57.618Z,99.90
2022-10-02T19:23:30.024Z,99.90
2022-10-02T19:26:02.847Z,99.90
2022-10-02T19:28:36.616Z,99.90
2022-10-02T19:31:12.287Z,99.90
2022-10-02T19:33:46.012Z,99.90
2022-10-02T19:36:21.080Z,99.90
2022-10-02T19:38:56.496Z,99.90
2022-10-02T19:41:27.308Z,99.90
2022-10-02T19:43:59.021Z,99.90
2022-10-02T19:46:37.294Z,99.90
2022-10-02T19:49:07.362Z,99.90
2022-10-02T19:51:44.850Z,99.90
2022-10-02T19:54:18.194Z,99.90
2022-10-02T19:56:47.659Z,99.90
2022-10-02T19:59:19.241Z,99.90
2022-10-02T20:01:53.534Z,99.90
2022-10-02T20:04:24.038Z,99.90
2022-10-02T20:06:57.359Z,99.90
2022-10-02T20:09:33.028Z,99.90
2022-10-02T20:12:05.856Z,99.90
2022-10-02T20:14:40.687Z,99.90
2022-10-02T20:17:10.444Z,99.90
2022-10-02T20:19:45.116Z,99.90
2022-10-02T20:22:23.988Z,99.90
2022-10-02T20:24:56.786Z,99.90
2022-10-02T20:27:34.796Z,99.90
2022-10-02T20:30:07.038Z,99.90
2022-10-02T20:32:39.742Z,99.90
2022-10-02T20:35:14.424Z,99.90
2022-10-02T20:37:44.099Z,99.90
2022-10-02T20:40:16.544Z,99.90
2022-10-02T20:42:55.262Z,99.90
2022-10-02T20:45:26.125Z,99.90
2022-10-02T20:49:06.374Z,99.90
2022-10-02T20:51:48.248Z,99.90
2022-10-02T20:54:35.914Z,99.90
2022-10-02T20:57:59.482Z,99.90
2022-10-02T21:00:29.072Z,99.90
2022-10-02T21:03:41.821Z,99.90
2022-10-02T21:06:38.513Z,99.90
2022-10-02T21:09:34.624Z,99.90
2022-10-02T21:12:31.847Z,99.90
2022-10-02T21:15:33.070Z,99.90
2022-10-02T21:18:26.450Z,99.90
2022-10-02T21:21:41.396Z,99.90
2022-10-02T21:24:45.637Z,99.90
2022-10-02T21:27:58.093Z,99.90
2022-10-02T21:30:36.241Z,99.90
2022-10-02T21:33:15.346Z,99.90
2022-10-02T21:35:49.132Z,99.90
2022-10-02T21:38:50.258Z,99.90
2022-10-02T21:41:51.787Z,99.90
2022-10-02T21:44:46.787Z,99.90
2022-10-02T21:47:49.528Z,99.90
2022-10-02T21:50:56.874Z,99.90
2022-10-02T21:54:08.094Z,99.90
2022-10-02T21:57:07.495Z,99.90
2022-10-02T22:00:07.300Z,99.90
2022-10-02T22:03:10.257Z,99.90
2022-10-02T22:06:05.235Z,99.90
2022-10-02T22:08:43.676Z,99.90
2022-10-02T22:11:16.561Z,99.90
2022-10-02T22:13:48.269Z,99.90
2022-10-02T22:16:34.584Z,99.90
2022-10-02T22:19:15.648Z,99.90
2022-10-02T22:22:01.689Z,99.90
2022-10-02T22:24:47.665Z,99.90
2022-10-02T22:27:31.121Z,99.90
2022-10-02T22:30:00.469Z,99.90
2022-10-02T22:33:11.485Z,99.90
2022-10-02T22:36:14.622Z,99.90
2022-10-02T22:38:49.276Z,99.90
2022-10-02T22:41:27.517Z,99.90
2022-10-02T22:43:59.495Z,99.90
2022-10-02T22:46:41.561Z,99.90
2022-10-02T22:49:20.550Z,99.90
2022-10-02T22:52:00.014Z,99.90
2022-10-02T22:54:35.347Z,99.90
2022-10-02T22:57:14.627Z,99.90
2022-10-02T22:59:49.508Z,99.90
2022-10-02T23:02:24.835Z,99.90
2022-10-02T23:04:59.913Z,99.90
2022-10-02T23:07:31.111Z,99.90
2022-10-02T23:10:03.887Z,99.90
2022-10-02T23:12:44.892Z,99.90
2022-10-02T23:15:38.868Z,99.90
2022-10-02T23:18:24.231Z,99.90
2022-10-02T23:21:04.651Z,99.90
2022-10-02T23:23:52.080Z,99.90
2022-10-02T23:26:33.047Z,99.90
2022-10-02T23:29:34.530Z,99.90
2022-10-02T23:32:19.752Z,99.90
2022-10-02T23:34:58.954Z,99.90
2022-10-02T23:37:33.160Z,99.90
2022-10-02T23:40:15.975Z,99.90
2022-10-02T23:42:48.797Z,99.90
2022-10-02T23:45:26.640Z,99.90
2022-10-02T23:48:00.238Z,99.90
2022-10-02T23:50:37.259Z,99.90
2022-10-02T23:53:38.677Z,99.90
2022-10-02T23:56:23.903Z,99.90
2022-10-02T23:59:06.795Z,99.90
